Hermann - S — V2EI6 — position and weather

sailwx.info

Track history (hours):
 
Tides and Currents Weather Stations Pressure Air Temp Water Temp Dewpoint Dewpoint Depression Visibility Wind Speed Wind Dir Waves Ship Positions

Hermann - S

Last reported at 2016-Dec-04 09:33 UTC. Time now 2016-Dec-09 23:11 UTC.
Position N 29°31' W 094°53'.

Length 190 m; draft 6.9 m.

Type: Ship. MMSI: 305441000.

Date/timePositionNaut miles runAvg speedWind from/ knotsBaromVisibWave heightAir tempDewpointWater temp
2016-Dec-04 09:33N 29°31' W 094°53'1110.9
2016-Dec-04 08:30N 29°42' W 094°59'7 6.7
2016-Dec-04 07:31N 29°45' W 095°06'0 0.0
2016-Dec-03 20:25N 29°45' W 095°07'0 0.0
2016-Dec-03 18:28N 29°45' W 095°07'0 0.0
2016-Dec-03 17:28N 29°45' W 095°07'0 0.0
2016-Dec-03 16:31N 29°45' W 095°07'0 0.0
2016-Dec-03 15:31N 29°45' W 095°07'0 0.0
2016-Dec-03 14:25N 29°45' W 095°07'0 0.0
2016-Dec-02 22:28N 29°45' W 095°07'0 0.0
2016-Dec-02 21:31N 29°45' W 095°07'0 0.0
2016-Dec-02 20:25N 29°45' W 095°07'0 0.0
2016-Dec-02 19:31N 29°45' W 095°07'0 0.0
2016-Dec-02 18:31N 29°45' W 095°07'0 0.0
2016-Dec-02 17:31N 29°45' W 095°07'0 0.0
2016-Dec-02 16:31N 29°45' W 095°07'0 0.0
2016-Dec-02 15:31N 29°45' W 095°07'0 0.0
2016-Dec-02 14:31N 29°45' W 095°07'0 0.0
2016-Dec-02 13:31N 29°45' W 095°07'  
2016-Nov-30 02:26N 29°45' W 095°06'5 5.4
2016-Nov-30 01:33N 29°43' W 095°01'1110.4
2016-Nov-30 00:30N 29°34' W 094°55'  
2016-Nov-26 12:30N 25°32' W 079°39'1111.4
2016-Nov-26 11:33N 25°43' W 079°40'10 9.8
2016-Nov-26 10:33N 25°51' W 079°47'1211.8
2016-Nov-26 09:33N 25°57' W 079°58'1010.1
2016-Nov-26 08:33N 26°05' W 080°05'2 2.5
2016-Nov-26 07:33N 26°06' W 080°07'0 0.0
2016-Nov-26 06:33N 26°06' W 080°07'0 0.0
2016-Nov-26 05:33N 26°06' W 080°07'0 0.0
2016-Nov-26 04:33N 26°06' W 080°07'0 0.0
2016-Nov-26 03:33N 26°06' W 080°07'0 0.0
2016-Nov-26 02:33N 26°06' W 080°07'0 0.0
2016-Nov-26 01:30N 26°06' W 080°07'0 0.0
2016-Nov-26 00:33N 26°06' W 080°07'0 0.0
2016-Nov-25 23:33N 26°06' W 080°07'0 0.0
2016-Nov-25 22:33N 26°06' W 080°07'0 0.0
2016-Nov-25 21:33N 26°06' W 080°07'0 0.0
2016-Nov-25 20:33N 26°06' W 080°07'0 0.0
2016-Nov-25 19:33N 26°06' W 080°07'0 0.0
2016-Nov-25 18:33N 26°06' W 080°07'0 0.0
2016-Nov-25 17:33N 26°06' W 080°07'0 0.0
2016-Nov-25 16:33N 26°06' W 080°07'0 0.0
2016-Nov-25 15:33N 26°06' W 080°07'0 0.0
2016-Nov-25 14:33N 26°06' W 080°07'0 0.0
2016-Nov-25 13:33N 26°06' W 080°07'0 0.0
2016-Nov-25 12:33N 26°06' W 080°07'0 0.0
2016-Nov-25 11:30N 26°06' W 080°07'0 0.0
2016-Nov-25 10:33N 26°06' W 080°07'0 0.0
2016-Nov-25 09:30N 26°06' W 080°07'0 0.0
2016-Nov-25 08:33N 26°06' W 080°07'0 0.0
2016-Nov-25 07:33N 26°06' W 080°07'0 0.0
2016-Nov-25 06:33N 26°06' W 080°07'0 0.0
2016-Nov-25 05:33N 26°06' W 080°07'0 0.0
2016-Nov-25 04:33N 26°06' W 080°07'0 0.0
2016-Nov-25 03:33N 26°06' W 080°07'0 0.0
2016-Nov-25 02:33N 26°06' W 080°07'0 0.0
2016-Nov-25 01:33N 26°06' W 080°07'0 0.0
2016-Nov-25 00:33N 26°06' W 080°07'0 0.0
2016-Nov-24 23:30N 26°06' W 080°07'0 0.0
2016-Nov-24 22:33N 26°06' W 080°07'0 0.0
2016-Nov-24 21:33N 26°06' W 080°07'0 0.0
2016-Nov-24 20:30N 26°06' W 080°07'0 0.0
2016-Nov-24 19:30N 26°06' W 080°07'0 0.0
2016-Nov-24 18:33N 26°06' W 080°07'0 0.0
2016-Nov-24 17:30N 26°06' W 080°07'0 0.0
2016-Nov-24 16:33N 26°06' W 080°07'0 0.0
2016-Nov-24 15:33N 26°06' W 080°07'0 0.0
2016-Nov-24 14:33N 26°06' W 080°07'0 0.0
2016-Nov-24 13:33N 26°06' W 080°07'0 0.0
2016-Nov-24 12:33N 26°06' W 080°07'0 0.0
2016-Nov-24 11:33N 26°06' W 080°07'0 0.0
2016-Nov-24 10:33N 26°06' W 080°07'  
Track history (hours):
 
Tides and Currents Weather Stations Pressure Air Temp Water Temp Dewpoint Dewpoint Depression Visibility Wind Speed Wind Dir Waves Ship Positions

Hermann - S

Last reported at 2016-Dec-04 09:33 UTC. Time now 2016-Dec-09 23:11 UTC.
Position N 29°31' W 094°53'.

Length 190 m; draft 6.9 m.

Type: Ship. MMSI: 305441000.

Date/timePositionNaut miles runAvg speedWind from/ knotsBaromVisibWave heightAir tempDewpointWater temp
2016-Dec-04 09:33N 29°31' W 094°53'1110.9
2016-Dec-04 08:30N 29°42' W 094°59'7 6.7
2016-Dec-04 07:31N 29°45' W 095°06'0 0.0
2016-Dec-03 20:25N 29°45' W 095°07'0 0.0
2016-Dec-03 18:28N 29°45' W 095°07'0 0.0
2016-Dec-03 17:28N 29°45' W 095°07'0 0.0
2016-Dec-03 16:31N 29°45' W 095°07'0 0.0
2016-Dec-03 15:31N 29°45' W 095°07'0 0.0
2016-Dec-03 14:25N 29°45' W 095°07'0 0.0
2016-Dec-02 22:28N 29°45' W 095°07'0 0.0
2016-Dec-02 21:31N 29°45' W 095°07'0 0.0
2016-Dec-02 20:25N 29°45' W 095°07'0 0.0
2016-Dec-02 19:31N 29°45' W 095°07'0 0.0
2016-Dec-02 18:31N 29°45' W 095°07'0 0.0
2016-Dec-02 17:31N 29°45' W 095°07'0 0.0
2016-Dec-02 16:31N 29°45' W 095°07'0 0.0
2016-Dec-02 15:31N 29°45' W 095°07'0 0.0
2016-Dec-02 14:31N 29°45' W 095°07'0 0.0
2016-Dec-02 13:31N 29°45' W 095°07'  
2016-Nov-30 02:26N 29°45' W 095°06'5 5.4
2016-Nov-30 01:33N 29°43' W 095°01'1110.4
2016-Nov-30 00:30N 29°34' W 094°55'  
2016-Nov-26 12:30N 25°32' W 079°39'1111.4
2016-Nov-26 11:33N 25°43' W 079°40'10 9.8
2016-Nov-26 10:33N 25°51' W 079°47'1211.8
2016-Nov-26 09:33N 25°57' W 079°58'1010.1
2016-Nov-26 08:33N 26°05' W 080°05'2 2.5
2016-Nov-26 07:33N 26°06' W 080°07'0 0.0
2016-Nov-26 06:33N 26°06' W 080°07'0 0.0
2016-Nov-26 05:33N 26°06' W 080°07'0 0.0
2016-Nov-26 04:33N 26°06' W 080°07'0 0.0
2016-Nov-26 03:33N 26°06' W 080°07'0 0.0
2016-Nov-26 02:33N 26°06' W 080°07'0 0.0
2016-Nov-26 01:30N 26°06' W 080°07'0 0.0
2016-Nov-26 00:33N 26°06' W 080°07'0 0.0
2016-Nov-25 23:33N 26°06' W 080°07'0 0.0
2016-Nov-25 22:33N 26°06' W 080°07'0 0.0
2016-Nov-25 21:33N 26°06' W 080°07'0 0.0
2016-Nov-25 20:33N 26°06' W 080°07'0 0.0
2016-Nov-25 19:33N 26°06' W 080°07'0 0.0
2016-Nov-25 18:33N 26°06' W 080°07'0 0.0
2016-Nov-25 17:33N 26°06' W 080°07'0 0.0
2016-Nov-25 16:33N 26°06' W 080°07'0 0.0
2016-Nov-25 15:33N 26°06' W 080°07'0 0.0
2016-Nov-25 14:33N 26°06' W 080°07'0 0.0
2016-Nov-25 13:33N 26°06' W 080°07'0 0.0
2016-Nov-25 12:33N 26°06' W 080°07'0 0.0
2016-Nov-25 11:30N 26°06' W 080°07'0 0.0
2016-Nov-25 10:33N 26°06' W 080°07'0 0.0
2016-Nov-25 09:30N 26°06' W 080°07'0 0.0
2016-Nov-25 08:33N 26°06' W 080°07'0 0.0
2016-Nov-25 07:33N 26°06' W 080°07'0 0.0
2016-Nov-25 06:33N 26°06' W 080°07'0 0.0
2016-Nov-25 05:33N 26°06' W 080°07'0 0.0
2016-Nov-25 04:33N 26°06' W 080°07'0 0.0
2016-Nov-25 03:33N 26°06' W 080°07'0 0.0
2016-Nov-25 02:33N 26°06' W 080°07'0 0.0
2016-Nov-25 01:33N 26°06' W 080°07'0 0.0
2016-Nov-25 00:33N 26°06' W 080°07'0 0.0
2016-Nov-24 23:30N 26°06' W 080°07'0 0.0
2016-Nov-24 22:33N 26°06' W 080°07'0 0.0
2016-Nov-24 21:33N 26°06' W 080°07'0 0.0
2016-Nov-24 20:30N 26°06' W 080°07'0 0.0
2016-Nov-24 19:30N 26°06' W 080°07'0 0.0
2016-Nov-24 18:33N 26°06' W 080°07'0 0.0
2016-Nov-24 17:30N 26°06' W 080°07'0 0.0
2016-Nov-24 16:33N 26°06' W 080°07'0 0.0
2016-Nov-24 15:33N 26°06' W 080°07'0 0.0
2016-Nov-24 14:33N 26°06' W 080°07'0 0.0
2016-Nov-24 13:33N 26°06' W 080°07'0 0.0
2016-Nov-24 12:33N 26°06' W 080°07'0 0.0
2016-Nov-24 11:33N 26°06' W 080°07'0 0.0
2016-Nov-24 10:33N 26°06' W 080°07'  

Dump ship's entire track history